sensor_id;sensor_type;location;lat;lon;timestamp;temperature;humidity
47482;DHT22;33219;47.410;9.730;2024-02-23T00:01:09;7.30;99.90
47482;DHT22;33219;47.410;9.730;2024-02-23T00:03:37;7.40;99.90
47482;DHT22;33219;47.410;9.730;2024-02-23T00:06:04;7.40;99.90
47482;DHT22;33219;47.410;9.730;2024-02-23T00:08:31;7.50;99.90
47482;DHT22;33219;47.410;9.730;2024-02-23T00:10:58;7.50;99.90
47482;DHT22;33219;47.410;9.730;2024-02-23T00:13:25;7.50;99.90
47482;DHT22;33219;47.410;9.730;2024-02-23T00:15:51;7.40;99.90
47482;DHT22;33219;47.410;9.730;2024-02-23T00:18:18;7.40;99.90
47482;DHT22;33219;47.410;9.730;2024-02-23T00:20:47;7.30;99.90
47482;DHT22;33219;47.410;9.730;2024-02-23T00:23:14;7.30;99.90
47482;DHT22;33219;47.410;9.730;2024-02-23T00:25:41;7.20;99.90
47482;DHT22;33219;47.410;9.730;2024-02-23T00:28:08;7.20;99.90
47482;DHT22;33219;47.410;9.730;2024-02-23T00:30:34;7.20;99.90
47482;DHT22;33219;47.410;9.730;2024-02-23T00:33:01;7.10;99.90
47482;DHT22;33219;47.410;9.730;2024-02-23T00:35:28;7.10;99.90
47482;DHT22;33219;47.410;9.730;2024-02-23T00:37:55;7.10;99.90
47482;DHT22;33219;47.410;9.730;2024-02-23T00:40:22;7.10;99.90
47482;DHT22;33219;47.410;9.730;2024-02-23T00:42:51;7.00;99.90
47482;DHT22;33219;47.410;9.730;2024-02-23T00:45:18;7.10;99.90
47482;DHT22;33219;47.410;9.730;2024-02-23T00:47:45;7.10;99.90
47482;DHT22;33219;47.410;9.730;2024-02-23T00:50:13;7.10;99.90
47482;DHT22;33219;47.410;9.730;2024-02-23T00:52:40;7.10;99.90
47482;DHT22;33219;47.410;9.730;2024-02-23T00:55:07;7.10;99.90
47482;DHT22;33219;47.410;9.730;2024-02-23T00:57:34;7.20;99.90
47482;DHT22;33219;47.410;9.730;2024-02-23T01:00:01;7.20;99.90
47482;DHT22;33219;47.410;9.730;2024-02-23T01:02:30;7.20;99.90
47482;DHT22;33219;47.410;9.730;2024-02-23T01:04:58;7.10;99.90
47482;DHT22;33219;47.410;9.730;2024-02-23T01:07:25;7.20;99.90
47482;DHT22;33219;47.410;9.730;2024-02-23T01:09:52;7.30;99.90
47482;DHT22;33219;47.410;9.730;2024-02-23T01:12:19;7.40;99.90
47482;DHT22;33219;47.410;9.730;2024-02-23T01:14:46;7.40;99.90
47482;DHT22;33219;47.410;9.730;2024-02-23T01:17:14;7.40;99.90
47482;DHT22;33219;47.410;9.730;2024-02-23T01:19:41;7.40;99.90
47482;DHT22;33219;47.410;9.730;2024-02-23T01:22:08;7.30;99.90
47482;DHT22;33219;47.410;9.730;2024-02-23T01:24:35;7.40;99.90
47482;DHT22;33219;47.410;9.730;2024-02-23T01:27:02;7.40;99.90
47482;DHT22;33219;47.410;9.730;2024-02-23T01:29:29;7.40;99.90
47482;DHT22;33219;47.410;9.730;2024-02-23T01:31:56;7.40;99.90
47482;DHT22;33219;47.410;9.730;2024-02-23T01:34:23;7.50;99.90
47482;DHT22;33219;47.410;9.730;2024-02-23T01:36:50;7.40;99.90
47482;DHT22;33219;47.410;9.730;2024-02-23T01:39:17;7.40;99.90
47482;DHT22;33219;47.410;9.730;2024-02-23T01:41:43;7.40;99.90
47482;DHT22;33219;47.410;9.730;2024-02-23T01:44:10;7.50;99.90
47482;DHT22;33219;47.410;9.730;2024-02-23T01:46:37;7.40;99.90
47482;DHT22;33219;47.410;9.730;2024-02-23T01:49:05;7.40;99.90
47482;DHT22;33219;47.410;9.730;2024-02-23T01:51:33;7.40;99.90
47482;DHT22;33219;47.410;9.730;2024-02-23T01:54:00;7.30;99.90
47482;DHT22;33219;47.410;9.730;2024-02-23T01:56:27;7.30;99.90
47482;DHT22;33219;47.410;9.730;2024-02-23T01:58:54;7.30;99.90
47482;DHT22;33219;47.410;9.730;2024-02-23T02:01:22;7.50;99.90
47482;DHT22;33219;47.410;9.730;2024-02-23T02:03:48;7.50;99.90
47482;DHT22;33219;47.410;9.730;2024-02-23T02:06:15;7.50;99.90
47482;DHT22;33219;47.410;9.730;2024-02-23T02:08:42;7.50;99.90
47482;DHT22;33219;47.410;9.730;2024-02-23T02:11:09;7.50;99.90
47482;DHT22;33219;47.410;9.730;2024-02-23T02:13:36;7.60;99.90
47482;DHT22;33219;47.410;9.730;2024-02-23T02:16:03;7.60;99.90
47482;DHT22;33219;47.410;9.730;2024-02-23T02:18:30;7.60;99.90
47482;DHT22;33219;47.410;9.730;2024-02-23T02:20:57;7.60;99.90
47482;DHT22;33219;47.410;9.730;2024-02-23T02:23:24;7.60;99.90
47482;DHT22;33219;47.410;9.730;2024-02-23T02:25:53;7.50;99.90
47482;DHT22;33219;47.410;9.730;2024-02-23T02:28:20;7.50;99.90
47482;DHT22;33219;47.410;9.730;2024-02-23T02:30:48;7.40;99.90
47482;DHT22;33219;47.410;9.730;2024-02-23T02:33:15;7.40;99.90
47482;DHT22;33219;47.410;9.730;2024-02-23T02:35:42;7.40;99.90
47482;DHT22;33219;47.410;9.730;2024-02-23T02:38:09;7.40;99.90
47482;DHT22;33219;47.410;9.730;2024-02-23T02:40:36;7.30;99.90
47482;DHT22;33219;47.410;9.730;2024-02-23T02:43:03;7.30;99.90
47482;DHT22;33219;47.410;9.730;2024-02-23T02:45:30;7.20;99.90
47482;DHT22;33219;47.410;9.730;2024-02-23T02:47:57;7.20;99.90
47482;DHT22;33219;47.410;9.730;2024-02-23T02:50:24;7.20;99.90
47482;DHT22;33219;47.410;9.730;2024-02-23T02:52:51;7.10;99.90
47482;DHT22;33219;47.410;9.730;2024-02-23T02:55:17;6.80;99.90
47482;DHT22;33219;47.410;9.730;2024-02-23T02:57:44;6.50;99.90
47482;DHT22;33219;47.410;9.730;2024-02-23T03:00:12;6.20;99.90
47482;DHT22;33219;47.410;9.730;2024-02-23T03:02:38;5.90;99.90
47482;DHT22;33219;47.410;9.730;2024-02-23T03:05:05;5.60;99.90
47482;DHT22;33219;47.410;9.730;2024-02-23T03:07:32;5.40;99.90
47482;DHT22;33219;47.410;9.730;2024-02-23T03:09:59;5.20;99.90
47482;DHT22;33219;47.410;9.730;2024-02-23T03:12:26;5.00;99.90
47482;DHT22;33219;47.410;9.730;2024-02-23T03:14:53;4.90;99.90
47482;DHT22;33219;47.410;9.730;2024-02-23T03:17:21;4.80;99.90
47482;DHT22;33219;47.410;9.730;2024-02-23T03:19:48;4.70;99.90
47482;DHT22;33219;47.410;9.730;2024-02-23T03:22:16;4.70;99.90
47482;DHT22;33219;47.410;9.730;2024-02-23T03:24:43;4.60;99.90
47482;DHT22;33219;47.410;9.730;2024-02-23T03:27:10;4.60;99.90
47482;DHT22;33219;47.410;9.730;2024-02-23T03:29:38;4.60;99.90
47482;DHT22;33219;47.410;9.730;2024-02-23T03:32:05;4.50;99.90
47482;DHT22;33219;47.410;9.730;2024-02-23T03:34:32;4.50;99.90
47482;DHT22;33219;47.410;9.730;2024-02-23T03:36:59;4.50;99.90
47482;DHT22;33219;47.410;9.730;2024-02-23T03:39:28;4.40;99.90
47482;DHT22;33219;47.410;9.730;2024-02-23T03:41:54;4.40;99.90
47482;DHT22;33219;47.410;9.730;2024-02-23T03:44:21;4.30;99.90
47482;DHT22;33219;47.410;9.730;2024-02-23T03:46:48;4.30;99.90
47482;DHT22;33219;47.410;9.730;2024-02-23T03:49:15;4.30;99.90
47482;DHT22;33219;47.410;9.730;2024-02-23T03:51:42;4.30;99.90
47482;DHT22;33219;47.410;9.730;2024-02-23T03:54:09;4.30;99.90
47482;DHT22;33219;47.410;9.730;2024-02-23T03:56:39;4.30;99.90
47482;DHT22;33219;47.410;9.730;2024-02-23T03:59:07;4.30;99.90
47482;DHT22;33219;47.410;9.730;2024-02-23T04:01:37;4.30;99.90
47482;DHT22;33219;47.410;9.730;2024-02-23T04:04:05;4.30;99.90
47482;DHT22;33219;47.410;9.730;2024-02-23T04:06:32;4.40;99.90
47482;DHT22;33219;47.410;9.730;2024-02-23T04:08:59;4.40;99.90
47482;DHT22;33219;47.410;9.730;2024-02-23T04:11:26;4.50;99.90
47482;DHT22;33219;47.410;9.730;2024-02-23T04:13:53;4.50;99.90
47482;DHT22;33219;47.410;9.730;2024-02-23T04:16:22;4.40;99.90
47482;DHT22;33219;47.410;9.730;2024-02-23T04:18:49;4.40;99.90
47482;DHT22;33219;47.410;9.730;2024-02-23T04:21:18;4.50;99.90
47482;DHT22;33219;47.410;9.730;2024-02-23T04:23:45;4.50;99.90
47482;DHT22;33219;47.410;9.730;2024-02-23T04:26:12;4.50;99.90
47482;DHT22;33219;47.410;9.730;2024-02-23T04:28:41;4.50;99.90
47482;DHT22;33219;47.410;9.730;2024-02-23T04:31:08;4.60;99.90
47482;DHT22;33219;47.410;9.730;2024-02-23T04:33:36;4.60;99.90
47482;DHT22;33219;47.410;9.730;2024-02-23T04:36:03;4.60;99.90
47482;DHT22;33219;47.410;9.730;2024-02-23T04:38:34;4.70;99.90
47482;DHT22;33219;47.410;9.730;2024-02-23T04:40:58;4.70;99.90
47482;DHT22;33219;47.410;9.730;2024-02-23T04:43:25;4.80;99.90
47482;DHT22;33219;47.410;9.730;2024-02-23T04:45:52;4.80;99.90
47482;DHT22;33219;47.410;9.730;2024-02-23T04:48:18;4.80;99.90
47482;DHT22;33219;47.410;9.730;2024-02-23T04:50:45;4.80;99.90
47482;DHT22;33219;47.410;9.730;2024-02-23T04:53:12;4.90;99.90
47482;DHT22;33219;47.410;9.730;2024-02-23T04:55:39;4.90;99.90
47482;DHT22;33219;47.410;9.730;2024-02-23T04:58:06;4.90;99.90
47482;DHT22;33219;47.410;9.730;2024-02-23T05:00:33;5.00;99.90
47482;DHT22;33219;47.410;9.730;2024-02-23T05:03:00;5.10;99.90
47482;DHT22;33219;47.410;9.730;2024-02-23T05:05:32;5.10;99.90
47482;DHT22;33219;47.410;9.730;2024-02-23T05:07:59;5.10;99.90
47482;DHT22;33219;47.410;9.730;2024-02-23T05:10:26;5.10;99.90
47482;DHT22;33219;47.410;9.730;2024-02-23T05:12:54;5.10;99.90
47482;DHT22;33219;47.410;9.730;2024-02-23T05:15:21;5.10;99.90
47482;DHT22;33219;47.410;9.730;2024-02-23T05:17:47;5.10;99.90
47482;DHT22;33219;47.410;9.730;2024-02-23T05:20:14;5.00;99.90
47482;DHT22;33219;47.410;9.730;2024-02-23T05:22:41;5.10;99.90
47482;DHT22;33219;47.410;9.730;2024-02-23T05:25:08;5.00;99.90
47482;DHT22;33219;47.410;9.730;2024-02-23T05:27:35;5.00;99.90
47482;DHT22;33219;47.410;9.730;2024-02-23T05:30:02;5.00;99.90
47482;DHT22;33219;47.410;9.730;2024-02-23T05:32:29;5.00;99.90
47482;DHT22;33219;47.410;9.730;2024-02-23T05:34:55;5.00;99.90
47482;DHT22;33219;47.410;9.730;2024-02-23T05:37:27;5.10;99.90
47482;DHT22;33219;47.410;9.730;2024-02-23T05:39:52;5.10;99.90
47482;DHT22;33219;47.410;9.730;2024-02-23T05:42:19;5.10;99.90
47482;DHT22;33219;47.410;9.730;2024-02-23T05:44:46;5.10;99.90
47482;DHT22;33219;47.410;9.730;2024-02-23T05:47:14;5.10;99.90
47482;DHT22;33219;47.410;9.730;2024-02-23T05:49:41;5.10;99.90
47482;DHT22;33219;47.410;9.730;2024-02-23T05:52:08;5.10;99.90
47482;DHT22;33219;47.410;9.730;2024-02-23T05:54:35;5.10;99.90
47482;DHT22;33219;47.410;9.730;2024-02-23T05:57:02;5.10;99.90
47482;DHT22;33219;47.410;9.730;2024-02-23T05:59:29;5.10;99.90
47482;DHT22;33219;47.410;9.730;2024-02-23T06:01:55;5.10;99.90
47482;DHT22;33219;47.410;9.730;2024-02-23T06:04:25;5.10;99.90
47482;DHT22;33219;47.410;9.730;2024-02-23T06:06:53;5.00;99.90
47482;DHT22;33219;47.410;9.730;2024-02-23T06:09:19;5.00;99.90
47482;DHT22;33219;47.410;9.730;2024-02-23T06:11:47;5.00;99.90
47482;DHT22;33219;47.410;9.730;2024-02-23T06:14:14;5.00;99.90
47482;DHT22;33219;47.410;9.730;2024-02-23T06:16:40;4.90;99.90
47482;DHT22;33219;47.410;9.730;2024-02-23T06:19:08;5.00;99.90
47482;DHT22;33219;47.410;9.730;2024-02-23T06:21:35;5.00;99.90
47482;DHT22;33219;47.410;9.730;2024-02-23T06:24:02;5.00;99.90
47482;DHT22;33219;47.410;9.730;2024-02-23T06:26:29;5.00;99.90
47482;DHT22;33219;47.410;9.730;2024-02-23T06:28:56;5.00;99.90
47482;DHT22;33219;47.410;9.730;2024-02-23T06:31:26;5.10;99.90
47482;DHT22;33219;47.410;9.730;2024-02-23T06:33:58;5.10;99.90
47482;DHT22;33219;47.410;9.730;2024-02-23T06:36:30;5.10;99.90
47482;DHT22;33219;47.410;9.730;2024-02-23T06:39:05;5.30;99.90
47482;DHT22;33219;47.410;9.730;2024-02-23T06:41:34;5.30;99.90
47482;DHT22;33219;47.410;9.730;2024-02-23T06:44:06;5.30;99.90
47482;DHT22;33219;47.410;9.730;2024-02-23T06:46:39;5.40;99.90
47482;DHT22;33219;47.410;9.730;2024-02-23T06:49:10;5.40;99.90
47482;DHT22;33219;47.410;9.730;2024-02-23T06:51:47;5.40;99.90
47482;DHT22;33219;47.410;9.730;2024-02-23T06:54:17;5.50;99.90
47482;DHT22;33219;47.410;9.730;2024-02-23T06:57:10;5.40;99.90
47482;DHT22;33219;47.410;9.730;2024-02-23T06:59:51;5.50;99.90
47482;DHT22;33219;47.410;9.730;2024-02-23T07:05:01;5.60;99.90
47482;DHT22;33219;47.410;9.730;2024-02-23T07:07:38;5.60;99.90
47482;DHT22;33219;47.410;9.730;2024-02-23T07:10:17;5.60;99.90
47482;DHT22;33219;47.410;9.730;2024-02-23T07:12:59;5.60;99.90
47482;DHT22;33219;47.410;9.730;2024-02-23T07:15:32;5.60;99.90
47482;DHT22;33219;47.410;9.730;2024-02-23T07:18:12;5.60;99.90
47482;DHT22;33219;47.410;9.730;2024-02-23T07:20:44;5.60;99.90
47482;DHT22;33219;47.410;9.730;2024-02-23T07:23:22;5.60;99.90
47482;DHT22;33219;47.410;9.730;2024-02-23T07:25:52;5.60;99.90
47482;DHT22;33219;47.410;9.730;2024-02-23T07:28:26;5.60;99.90
47482;DHT22;33219;47.410;9.730;2024-02-23T07:30:57;5.60;99.90
47482;DHT22;33219;47.410;9.730;2024-02-23T07:33:37;5.50;99.90
47482;DHT22;33219;47.410;9.730;2024-02-23T07:36:07;5.50;99.90
47482;DHT22;33219;47.410;9.730;2024-02-23T07:38:50;5.30;99.90
47482;DHT22;33219;47.410;9.730;2024-02-23T07:41:32;5.40;99.90
47482;DHT22;33219;47.410;9.730;2024-02-23T07:44:02;5.30;99.90
47482;DHT22;33219;47.410;9.730;2024-02-23T07:46:33;5.30;99.90
47482;DHT22;33219;47.410;9.730;2024-02-23T07:49:21;5.30;99.90
47482;DHT22;33219;47.410;9.730;2024-02-23T07:51:52;5.30;99.90
47482;DHT22;33219;47.410;9.730;2024-02-23T07:54:22;5.30;99.90
47482;DHT22;33219;47.410;9.730;2024-02-23T07:56:56;5.30;99.90
47482;DHT22;33219;47.410;9.730;2024-02-23T07:59:28;5.20;99.90
47482;DHT22;33219;47.410;9.730;2024-02-23T08:02:09;5.20;99.90
47482;DHT22;33219;47.410;9.730;2024-02-23T08:04:47;5.20;99.90
47482;DHT22;33219;47.410;9.730;2024-02-23T08:07:29;5.30;99.90
47482;DHT22;33219;47.410;9.730;2024-02-23T08:10:01;5.30;99.90
47482;DHT22;33219;47.410;9.730;2024-02-23T08:12:44;5.40;99.90
47482;DHT22;33219;47.410;9.730;2024-02-23T08:15:07;5.40;99.90
47482;DHT22;33219;47.410;9.730;2024-02-23T08:17:39;5.50;99.90
47482;DHT22;33219;47.410;9.730;2024-02-23T08:20:16;5.40;99.90
47482;DHT22;33219;47.410;9.730;2024-02-23T08:23:02;5.50;99.90
47482;DHT22;33219;47.410;9.730;2024-02-23T08:25:37;5.50;99.90
47482;DHT22;33219;47.410;9.730;2024-02-23T08:28:22;5.50;99.90
47482;DHT22;33219;47.410;9.730;2024-02-23T08:30:47;5.60;99.90
47482;DHT22;33219;47.410;9.730;2024-02-23T08:33:24;5.60;99.90
47482;DHT22;33219;47.410;9.730;2024-02-23T08:35:54;5.60;99.90
47482;DHT22;33219;47.410;9.730;2024-02-23T08:38:23;5.70;99.90
47482;DHT22;33219;47.410;9.730;2024-02-23T08:40:56;5.70;99.90
47482;DHT22;33219;47.410;9.730;2024-02-23T08:43:25;5.70;99.90
47482;DHT22;33219;47.410;9.730;2024-02-23T08:46:02;5.60;99.90
47482;DHT22;33219;47.410;9.730;2024-02-23T08:48:32;5.70;99.90
47482;DHT22;33219;47.410;9.730;2024-02-23T08:51:00;5.70;99.90
47482;DHT22;33219;47.410;9.730;2024-02-23T08:53:31;5.60;99.90
47482;DHT22;33219;47.410;9.730;2024-02-23T08:56:12;5.60;99.90
47482;DHT22;33219;47.410;9.730;2024-02-23T08:58:41;5.60;99.90
47482;DHT22;33219;47.410;9.730;2024-02-23T09:01:12;5.60;99.90
47482;DHT22;33219;47.410;9.730;2024-02-23T09:03:47;5.70;99.90
47482;DHT22;33219;47.410;9.730;2024-02-23T09:06:16;5.60;99.90
47482;DHT22;33219;47.410;9.730;2024-02-23T09:08:52;5.70;99.90
47482;DHT22;33219;47.410;9.730;2024-02-23T09:11:24;5.80;99.90
47482;DHT22;33219;47.410;9.730;2024-02-23T09:13:54;5.80;99.90
47482;DHT22;33219;47.410;9.730;2024-02-23T09:16:25;5.80;99.90
47482;DHT22;33219;47.410;9.730;2024-02-23T09:18:52;5.90;99.90
47482;DHT22;33219;47.410;9.730;2024-02-23T09:21:56;5.90;99.90
47482;DHT22;33219;47.410;9.730;2024-02-23T09:24:12;6.00;99.90
47482;DHT22;33219;47.410;9.730;2024-02-23T09:26:45;6.00;99.90
47482;DHT22;33219;47.410;9.730;2024-02-23T09:29:14;6.10;99.90
47482;DHT22;33219;47.410;9.730;2024-02-23T09:31:52;6.10;99.90
47482;DHT22;33219;47.410;9.730;2024-02-23T09:34:25;6.20;99.90
47482;DHT22;33219;47.410;9.730;2024-02-23T09:36:59;6.30;99.90
47482;DHT22;33219;47.410;9.730;2024-02-23T09:39:31;6.30;99.90
47482;DHT22;33219;47.410;9.730;2024-02-23T09:42:01;6.30;99.90
47482;DHT22;33219;47.410;9.730;2024-02-23T09:44:32;6.40;99.90
47482;DHT22;33219;47.410;9.730;2024-02-23T09:47:04;6.50;99.90
47482;DHT22;33219;47.410;9.730;2024-02-23T09:49:46;6.50;99.90
47482;DHT22;33219;47.410;9.730;2024-02-23T09:52:08;6.40;99.90
47482;DHT22;33219;47.410;9.730;2024-02-23T09:54:47;6.50;99.90
47482;DHT22;33219;47.410;9.730;2024-02-23T09:59:42;6.40;99.90
47482;DHT22;33219;47.410;9.730;2024-02-23T10:02:09;6.30;99.90
47482;DHT22;33219;47.410;9.730;2024-02-23T10:04:39;6.40;99.90
47482;DHT22;33219;47.410;9.730;2024-02-23T10:07:08;6.40;99.90
47482;DHT22;33219;47.410;9.730;2024-02-23T10:09:36;6.40;99.90
47482;DHT22;33219;47.410;9.730;2024-02-23T10:12:04;6.30;99.90
47482;DHT22;33219;47.410;9.730;2024-02-23T10:14:31;6.30;99.90
47482;DHT22;33219;47.410;9.730;2024-02-23T10:22:22;6.30;99.90
47482;DHT22;33219;47.410;9.730;2024-02-23T10:24:52;6.30;99.90
47482;DHT22;33219;47.410;9.730;2024-02-23T10:27:22;6.20;99.90
47482;DHT22;33219;47.410;9.730;2024-02-23T10:30:05;6.20;99.90
47482;DHT22;33219;47.410;9.730;2024-02-23T10:32:33;6.30;99.90
47482;DHT22;33219;47.410;9.730;2024-02-23T10:35:07;6.30;99.90
47482;DHT22;33219;47.410;9.730;2024-02-23T10:37:34;6.30;99.90
47482;DHT22;33219;47.410;9.730;2024-02-23T10:42:49;6.40;99.90
47482;DHT22;33219;47.410;9.730;2024-02-23T10:45:25;6.50;99.90
47482;DHT22;33219;47.410;9.730;2024-02-23T10:48:09;6.60;99.90
47482;DHT22;33219;47.410;9.730;2024-02-23T10:50:38;6.60;99.90
47482;DHT22;33219;47.410;9.730;2024-02-23T10:53:16;6.60;99.90
47482;DHT22;33219;47.410;9.730;2024-02-23T10:55:52;6.50;99.90
47482;DHT22;33219;47.410;9.730;2024-02-23T10:58:41;6.50;99.90
47482;DHT22;33219;47.410;9.730;2024-02-23T11:03:59;6.70;99.90
47482;DHT22;33219;47.410;9.730;2024-02-23T11:09:41;6.80;99.90
47482;DHT22;33219;47.410;9.730;2024-02-23T11:25:17;6.70;99.90
47482;DHT22;33219;47.410;9.730;2024-02-23T11:27:50;6.60;99.90
47482;DHT22;33219;47.410;9.730;2024-02-23T11:30:28;6.60;99.90
47482;DHT22;33219;47.410;9.730;2024-02-23T11:33:00;6.60;99.90
47482;DHT22;33219;47.410;9.730;2024-02-23T11:35:35;6.50;99.90
47482;DHT22;33219;47.410;9.730;2024-02-23T11:38:08;6.60;99.90
47482;DHT22;33219;47.410;9.730;2024-02-23T11:40:44;6.50;99.90
47482;DHT22;33219;47.410;9.730;2024-02-23T11:43:27;6.50;99.90
47482;DHT22;33219;47.410;9.730;2024-02-23T11:46:04;6.50;99.90
47482;DHT22;33219;47.410;9.730;2024-02-23T11:48:38;6.60;99.90
47482;DHT22;33219;47.410;9.730;2024-02-23T11:51:10;6.60;99.90
47482;DHT22;33219;47.410;9.730;2024-02-23T11:53:41;6.50;99.90
47482;DHT22;33219;47.410;9.730;2024-02-23T11:56:13;6.60;99.90
47482;DHT22;33219;47.410;9.730;2024-02-23T11:58:42;6.60;99.90
47482;DHT22;33219;47.410;9.730;2024-02-23T12:01:12;6.60;99.90
47482;DHT22;33219;47.410;9.730;2024-02-23T12:03:41;6.60;99.90
47482;DHT22;33219;47.410;9.730;2024-02-23T12:06:10;6.60;99.90
47482;DHT22;33219;47.410;9.730;2024-02-23T12:08:43;6.70;99.90
47482;DHT22;33219;47.410;9.730;2024-02-23T12:11:14;6.70;99.90
47482;DHT22;33219;47.410;9.730;2024-02-23T12:13:42;6.70;99.90
47482;DHT22;33219;47.410;9.730;2024-02-23T12:16:15;6.60;99.90
47482;DHT22;33219;47.410;9.730;2024-02-23T12:18:45;6.50;99.90
47482;DHT22;33219;47.410;9.730;2024-02-23T12:21:23;6.60;99.90
47482;DHT22;33219;47.410;9.730;2024-02-23T12:23:44;6.60;99.90
47482;DHT22;33219;47.410;9.730;2024-02-23T12:26:14;6.50;99.90
47482;DHT22;33219;47.410;9.730;2024-02-23T12:28:41;6.50;99.90
47482;DHT22;33219;47.410;9.730;2024-02-23T12:31:08;6.50;99.90
47482;DHT22;33219;47.410;9.730;2024-02-23T12:33:38;6.60;99.90
47482;DHT22;33219;47.410;9.730;2024-02-23T12:36:10;6.50;99.90
47482;DHT22;33219;47.410;9.730;2024-02-23T12:38:37;6.60;99.90
47482;DHT22;33219;47.410;9.730;2024-02-23T12:41:05;6.70;99.90
47482;DHT22;33219;47.410;9.730;2024-02-23T12:43:33;6.70;99.90
47482;DHT22;33219;47.410;9.730;2024-02-23T12:46:00;6.60;99.90
47482;DHT22;33219;47.410;9.730;2024-02-23T12:48:28;6.60;99.90
47482;DHT22;33219;47.410;9.730;2024-02-23T12:50:55;6.60;99.90
47482;DHT22;33219;47.410;9.730;2024-02-23T12:53:32;6.70;99.90
47482;DHT22;33219;47.410;9.730;2024-02-23T12:56:00;6.70;99.90
47482;DHT22;33219;47.410;9.730;2024-02-23T12:58:27;6.80;99.90
47482;DHT22;33219;47.410;9.730;2024-02-23T13:00:55;6.80;99.90
47482;DHT22;33219;47.410;9.730;2024-02-23T13:03:23;7.00;99.90
47482;DHT22;33219;47.410;9.730;2024-02-23T13:05:50;7.10;99.90
47482;DHT22;33219;47.410;9.730;2024-02-23T13:08:17;7.20;99.90
47482;DHT22;33219;47.410;9.730;2024-02-23T13:10:43;7.30;99.90
47482;DHT22;33219;47.410;9.730;2024-02-23T13:13:11;7.20;99.90
47482;DHT22;33219;47.410;9.730;2024-02-23T13:15:39;7.10;99.90
47482;DHT22;33219;47.410;9.730;2024-02-23T13:18:06;7.10;99.90
47482;DHT22;33219;47.410;9.730;2024-02-23T13:20:33;7.20;99.90
47482;DHT22;33219;47.410;9.730;2024-02-23T13:22:59;7.20;99.90
47482;DHT22;33219;47.410;9.730;2024-02-23T13:25:27;7.10;99.90
47482;DHT22;33219;47.410;9.730;2024-02-23T13:27:54;7.00;99.90
47482;DHT22;33219;47.410;9.730;2024-02-23T13:30:21;6.90;99.90
47482;DHT22;33219;47.410;9.730;2024-02-23T13:32:48;6.90;99.90
47482;DHT22;33219;47.410;9.730;2024-02-23T13:35:15;6.90;99.90
47482;DHT22;33219;47.410;9.730;2024-02-23T13:37:42;6.90;99.90
47482;DHT22;33219;47.410;9.730;2024-02-23T13:40:09;6.90;99.90
47482;DHT22;33219;47.410;9.730;2024-02-23T13:42:37;6.80;99.90
47482;DHT22;33219;47.410;9.730;2024-02-23T13:45:06;6.80;99.90
47482;DHT22;33219;47.410;9.730;2024-02-23T13:47:33;6.80;99.90
47482;DHT22;33219;47.410;9.730;2024-02-23T13:50:00;6.90;99.90
47482;DHT22;33219;47.410;9.730;2024-02-23T13:52:27;6.90;99.90
47482;DHT22;33219;47.410;9.730;2024-02-23T13:54:54;6.90;99.90
47482;DHT22;33219;47.410;9.730;2024-02-23T13:57:21;7.00;99.90
47482;DHT22;33219;47.410;9.730;2024-02-23T13:59:48;7.00;99.90
47482;DHT22;33219;47.410;9.730;2024-02-23T14:02:15;7.00;99.90
47482;DHT22;33219;47.410;9.730;2024-02-23T14:04:41;6.90;99.90
47482;DHT22;33219;47.410;9.730;2024-02-23T14:07:08;7.00;99.90
47482;DHT22;33219;47.410;9.730;2024-02-23T14:09:35;7.00;99.90
47482;DHT22;33219;47.410;9.730;2024-02-23T14:12:02;7.10;99.90
47482;DHT22;33219;47.410;9.730;2024-02-23T14:14:30;7.00;99.90
47482;DHT22;33219;47.410;9.730;2024-02-23T14:16:57;7.00;99.90
47482;DHT22;33219;47.410;9.730;2024-02-23T14:19:24;7.00;99.90
47482;DHT22;33219;47.410;9.730;2024-02-23T14:21:51;7.00;99.90
47482;DHT22;33219;47.410;9.730;2024-02-23T14:24:18;7.00;99.90
47482;DHT22;33219;47.410;9.730;2024-02-23T14:26:45;7.00;99.90
47482;DHT22;33219;47.410;9.730;2024-02-23T14:29:12;7.00;99.90
47482;DHT22;33219;47.410;9.730;2024-02-23T14:31:39;7.00;99.90
47482;DHT22;33219;47.410;9.730;2024-02-23T14:34:06;7.00;99.90
47482;DHT22;33219;47.410;9.730;2024-02-23T14:36:32;7.10;99.90
47482;DHT22;33219;47.410;9.730;2024-02-23T14:39:00;7.10;99.90
47482;DHT22;33219;47.410;9.730;2024-02-23T14:41:28;7.00;99.90
47482;DHT22;33219;47.410;9.730;2024-02-23T14:43:55;7.00;99.90
47482;DHT22;33219;47.410;9.730;2024-02-23T14:46:21;7.00;99.90
47482;DHT22;33219;47.410;9.730;2024-02-23T14:48:48;7.00;99.90
47482;DHT22;33219;47.410;9.730;2024-02-23T14:51:15;6.90;99.90
47482;DHT22;33219;47.410;9.730;2024-02-23T14:53:42;6.90;99.90
47482;DHT22;33219;47.410;9.730;2024-02-23T14:56:09;6.90;99.90
47482;DHT22;33219;47.410;9.730;2024-02-23T14:58:36;7.00;99.90
47482;DHT22;33219;47.410;9.730;2024-02-23T15:01:04;6.90;99.90
47482;DHT22;33219;47.410;9.730;2024-02-23T15:03:31;6.90;99.90
47482;DHT22;33219;47.410;9.730;2024-02-23T15:05:58;6.90;99.90
47482;DHT22;33219;47.410;9.730;2024-02-23T15:08:27;6.90;99.90
47482;DHT22;33219;47.410;9.730;2024-02-23T15:10:54;6.90;99.90
47482;DHT22;33219;47.410;9.730;2024-02-23T15:13:21;6.80;99.90
47482;DHT22;33219;47.410;9.730;2024-02-23T15:15:48;6.90;99.90
47482;DHT22;33219;47.410;9.730;2024-02-23T15:18:14;6.90;99.90
47482;DHT22;33219;47.410;9.730;2024-02-23T15:20:41;6.90;99.90
47482;DHT22;33219;47.410;9.730;2024-02-23T15:23:08;6.80;99.90
47482;DHT22;33219;47.410;9.730;2024-02-23T15:25:35;6.90;99.90
47482;DHT22;33219;47.410;9.730;2024-02-23T15:28:02;6.70;99.90
47482;DHT22;33219;47.410;9.730;2024-02-23T15:30:29;6.70;99.90
47482;DHT22;33219;47.410;9.730;2024-02-23T15:32:55;6.70;99.90
47482;DHT22;33219;47.410;9.730;2024-02-23T15:35:22;6.70;99.90
47482;DHT22;33219;47.410;9.730;2024-02-23T15:37:51;6.60;99.90
47482;DHT22;33219;47.410;9.730;2024-02-23T15:40:18;6.60;99.90
47482;DHT22;33219;47.410;9.730;2024-02-23T15:42:44;6.50;99.90
47482;DHT22;33219;47.410;9.730;2024-02-23T15:45:11;6.50;99.90
47482;DHT22;33219;47.410;9.730;2024-02-23T15:47:38;6.40;99.90
47482;DHT22;33219;47.410;9.730;2024-02-23T15:50:05;6.40;99.90
47482;DHT22;33219;47.410;9.730;2024-02-23T15:52:32;6.40;99.90
47482;DHT22;33219;47.410;9.730;2024-02-23T15:54:59;6.30;99.90
47482;DHT22;33219;47.410;9.730;2024-02-23T15:57:26;6.30;99.90
47482;DHT22;33219;47.410;9.730;2024-02-23T15:59:54;6.30;99.90
47482;DHT22;33219;47.410;9.730;2024-02-23T16:02:21;6.20;99.90
47482;DHT22;33219;47.410;9.730;2024-02-23T16:04:48;6.20;99.90
47482;DHT22;33219;47.410;9.730;2024-02-23T16:07:15;6.20;99.90
47482;DHT22;33219;47.410;9.730;2024-02-23T16:09:42;6.10;99.90
47482;DHT22;33219;47.410;9.730;2024-02-23T16:12:09;6.10;99.90
47482;DHT22;33219;47.410;9.730;2024-02-23T16:14:36;6.00;99.90
47482;DHT22;33219;47.410;9.730;2024-02-23T16:17:03;5.90;99.90
47482;DHT22;33219;47.410;9.730;2024-02-23T16:19:30;5.90;99.90
47482;DHT22;33219;47.410;9.730;2024-02-23T16:21:56;5.90;99.90
47482;DHT22;33219;47.410;9.730;2024-02-23T16:24:23;5.80;99.90
47482;DHT22;33219;47.410;9.730;2024-02-23T16:26:50;5.80;99.90
47482;DHT22;33219;47.410;9.730;2024-02-23T16:29:17;5.70;99.90